sensor_id;sensor_type;location;lat;lon;timestamp;temperature;humidity
42913;DHT22;50720;54.324;18.558;2023-05-10T00:01:04;9.30;99.90
42913;DHT22;50720;54.324;18.558;2023-05-10T00:03:36;9.30;99.90
42913;DHT22;50720;54.324;18.558;2023-05-10T00:06:05;9.30;99.90
42913;DHT22;50720;54.324;18.558;2023-05-10T00:08:34;9.10;99.90
42913;DHT22;50720;54.324;18.558;2023-05-10T00:11:04;9.00;99.90
42913;DHT22;50720;54.324;18.558;2023-05-10T00:13:34;8.90;99.90
42913;DHT22;50720;54.324;18.558;2023-05-10T00:16:04;8.90;99.90
42913;DHT22;50720;54.324;18.558;2023-05-10T00:18:35;8.80;99.90
42913;DHT22;50720;54.324;18.558;2023-05-10T00:21:05;8.80;99.90
42913;DHT22;50720;54.324;18.558;2023-05-10T00:23:34;8.70;99.90
42913;DHT22;50720;54.324;18.558;2023-05-10T00:26:04;8.70;99.90
42913;DHT22;50720;54.324;18.558;2023-05-10T00:28:33;8.60;99.90
42913;DHT22;50720;54.324;18.558;2023-05-10T00:31:03;8.60;99.90
42913;DHT22;50720;54.324;18.558;2023-05-10T00:33:33;8.50;99.90
42913;DHT22;50720;54.324;18.558;2023-05-10T00:36:04;8.40;99.90
42913;DHT22;50720;54.324;18.558;2023-05-10T00:38:35;8.40;99.90
42913;DHT22;50720;54.324;18.558;2023-05-10T00:41:04;8.30;99.90
42913;DHT22;50720;54.324;18.558;2023-05-10T00:43:34;8.30;99.90
42913;DHT22;50720;54.324;18.558;2023-05-10T00:46:03;8.30;99.90
42913;DHT22;50720;54.324;18.558;2023-05-10T00:48:34;8.30;99.90
42913;DHT22;50720;54.324;18.558;2023-05-10T00:51:05;8.20;99.90
42913;DHT22;50720;54.324;18.558;2023-05-10T00:53:35;8.20;99.90
42913;DHT22;50720;54.324;18.558;2023-05-10T00:56:04;8.20;99.90
42913;DHT22;50720;54.324;18.558;2023-05-10T00:58:34;8.20;99.90
42913;DHT22;50720;54.324;18.558;2023-05-10T01:01:04;8.20;99.90
42913;DHT22;50720;54.324;18.558;2023-05-10T01:03:34;8.20;99.90
42913;DHT22;50720;54.324;18.558;2023-05-10T01:06:06;8.00;99.90
42913;DHT22;50720;54.324;18.558;2023-05-10T01:08:36;8.00;99.90
42913;DHT22;50720;54.324;18.558;2023-05-10T01:11:05;8.00;99.90
42913;DHT22;50720;54.324;18.558;2023-05-10T01:13:36;8.00;99.90
42913;DHT22;50720;54.324;18.558;2023-05-10T01:16:08;7.90;99.90
42913;DHT22;50720;54.324;18.558;2023-05-10T01:18:40;7.90;99.90
42913;DHT22;50720;54.324;18.558;2023-05-10T01:21:19;7.90;99.90
42913;DHT22;50720;54.324;18.558;2023-05-10T01:24:14;7.90;99.90
42913;DHT22;50720;54.324;18.558;2023-05-10T01:27:20;7.80;99.90
42913;DHT22;50720;54.324;18.558;2023-05-10T01:30:08;7.70;99.90
42913;DHT22;50720;54.324;18.558;2023-05-10T01:32:50;7.70;99.90
42913;DHT22;50720;54.324;18.558;2023-05-10T01:35:31;7.70;99.90
42913;DHT22;50720;54.324;18.558;2023-05-10T01:38:16;7.60;99.90
42913;DHT22;50720;54.324;18.558;2023-05-10T01:40:53;7.50;99.90
42913;DHT22;50720;54.324;18.558;2023-05-10T01:43:28;7.50;99.90
42913;DHT22;50720;54.324;18.558;2023-05-10T01:46:03;7.40;99.90
42913;DHT22;50720;54.324;18.558;2023-05-10T01:48:42;7.40;99.90
42913;DHT22;50720;54.324;18.558;2023-05-10T01:51:19;7.40;99.90
42913;DHT22;50720;54.324;18.558;2023-05-10T01:53:53;7.30;99.90
42913;DHT22;50720;54.324;18.558;2023-05-10T01:56:26;7.30;99.90
42913;DHT22;50720;54.324;18.558;2023-05-10T01:58:59;7.30;99.90
42913;DHT22;50720;54.324;18.558;2023-05-10T02:01:29;7.20;99.90
42913;DHT22;50720;54.324;18.558;2023-05-10T02:04:02;7.10;99.90
42913;DHT22;50720;54.324;18.558;2023-05-10T02:06:33;7.10;99.90
42913;DHT22;50720;54.324;18.558;2023-05-10T02:09:03;7.10;99.90
42913;DHT22;50720;54.324;18.558;2023-05-10T02:11:33;7.00;99.90
42913;DHT22;50720;54.324;18.558;2023-05-10T02:14:03;6.90;99.90
42913;DHT22;50720;54.324;18.558;2023-05-10T02:16:35;6.80;99.90
42913;DHT22;50720;54.324;18.558;2023-05-10T02:19:07;6.70;99.90
42913;DHT22;50720;54.324;18.558;2023-05-10T02:21:39;6.70;99.90
42913;DHT22;50720;54.324;18.558;2023-05-10T02:24:09;6.60;99.90
42913;DHT22;50720;54.324;18.558;2023-05-10T02:26:39;6.60;99.90
42913;DHT22;50720;54.324;18.558;2023-05-10T02:29:10;6.50;99.90
42913;DHT22;50720;54.324;18.558;2023-05-10T02:31:41;6.40;99.90
42913;DHT22;50720;54.324;18.558;2023-05-10T02:34:13;6.40;99.90
42913;DHT22;50720;54.324;18.558;2023-05-10T02:36:44;6.30;99.90
42913;DHT22;50720;54.324;18.558;2023-05-10T02:39:15;6.20;99.90
42913;DHT22;50720;54.324;18.558;2023-05-10T02:41:46;6.20;99.90
42913;DHT22;50720;54.324;18.558;2023-05-10T02:44:17;6.20;99.90
42913;DHT22;50720;54.324;18.558;2023-05-10T02:46:48;6.20;99.90
42913;DHT22;50720;54.324;18.558;2023-05-10T02:49:19;6.20;99.90
42913;DHT22;50720;54.324;18.558;2023-05-10T02:51:54;6.20;99.90
42913;DHT22;50720;54.324;18.558;2023-05-10T02:54:29;6.20;99.90
42913;DHT22;50720;54.324;18.558;2023-05-10T02:57:00;6.10;99.90
42913;DHT22;50720;54.324;18.558;2023-05-10T02:59:33;6.10;99.90
42913;DHT22;50720;54.324;18.558;2023-05-10T03:02:03;6.10;99.90
42913;DHT22;50720;54.324;18.558;2023-05-10T03:04:34;6.10;99.90
42913;DHT22;50720;54.324;18.558;2023-05-10T03:07:04;6.00;99.90
42913;DHT22;50720;54.324;18.558;2023-05-10T03:09:34;6.10;99.90
42913;DHT22;50720;54.324;18.558;2023-05-10T03:12:07;6.00;99.90
42913;DHT22;50720;54.324;18.558;2023-05-10T03:14:49;6.10;99.90
42913;DHT22;50720;54.324;18.558;2023-05-10T03:17:30;6.10;99.90
42913;DHT22;50720;54.324;18.558;2023-05-10T03:20:04;6.10;99.90
42913;DHT22;50720;54.324;18.558;2023-05-10T03:22:38;6.10;99.90
42913;DHT22;50720;54.324;18.558;2023-05-10T03:25:11;6.10;99.90
42913;DHT22;50720;54.324;18.558;2023-05-10T03:27:43;6.10;99.90
42913;DHT22;50720;54.324;18.558;2023-05-10T03:30:13;6.10;99.90
42913;DHT22;50720;54.324;18.558;2023-05-10T03:32:44;6.20;99.90
42913;DHT22;50720;54.324;18.558;2023-05-10T03:35:15;6.20;99.90
42913;DHT22;50720;54.324;18.558;2023-05-10T03:37:46;6.30;99.90
42913;DHT22;50720;54.324;18.558;2023-05-10T03:40:15;6.30;99.90
42913;DHT22;50720;54.324;18.558;2023-05-10T03:42:45;6.40;99.90
42913;DHT22;50720;54.324;18.558;2023-05-10T03:45:15;6.40;99.90
42913;DHT22;50720;54.324;18.558;2023-05-10T03:47:45;6.40;99.90
42913;DHT22;50720;54.324;18.558;2023-05-10T03:50:16;6.60;99.90
42913;DHT22;50720;54.324;18.558;2023-05-10T03:52:46;6.70;99.90
42913;DHT22;50720;54.324;18.558;2023-05-10T03:55:16;6.70;99.90
42913;DHT22;50720;54.324;18.558;2023-05-10T03:57:46;6.80;99.90
42913;DHT22;50720;54.324;18.558;2023-05-10T04:00:17;6.90;99.90
42913;DHT22;50720;54.324;18.558;2023-05-10T04:02:47;7.00;99.90
42913;DHT22;50720;54.324;18.558;2023-05-10T04:05:18;7.00;99.90
42913;DHT22;50720;54.324;18.558;2023-05-10T04:07:48;7.10;99.90
42913;DHT22;50720;54.324;18.558;2023-05-10T04:10:18;7.20;99.90
42913;DHT22;50720;54.324;18.558;2023-05-10T04:12:49;7.30;99.90
42913;DHT22;50720;54.324;18.558;2023-05-10T04:15:18;7.40;99.90
42913;DHT22;50720;54.324;18.558;2023-05-10T04:17:48;7.40;99.90
42913;DHT22;50720;54.324;18.558;2023-05-10T04:20:20;7.60;99.90
42913;DHT22;50720;54.324;18.558;2023-05-10T04:25:20;7.70;99.90
42913;DHT22;50720;54.324;18.558;2023-05-10T04:27:50;8.00;99.90
42913;DHT22;50720;54.324;18.558;2023-05-10T04:30:21;8.10;99.90
42913;DHT22;50720;54.324;18.558;2023-05-10T04:32:51;8.10;99.90
42913;DHT22;50720;54.324;18.558;2023-05-10T04:35:22;8.30;99.90
42913;DHT22;50720;54.324;18.558;2023-05-10T04:37:51;8.40;99.90
42913;DHT22;50720;54.324;18.558;2023-05-10T04:40:21;8.40;99.90
42913;DHT22;50720;54.324;18.558;2023-05-10T04:42:51;8.50;99.90
42913;DHT22;50720;54.324;18.558;2023-05-10T04:45:20;8.60;99.90
42913;DHT22;50720;54.324;18.558;2023-05-10T04:47:50;8.60;99.90
42913;DHT22;50720;54.324;18.558;2023-05-10T04:50:21;8.80;99.90
42913;DHT22;50720;54.324;18.558;2023-05-10T04:52:51;9.00;99.90
42913;DHT22;50720;54.324;18.558;2023-05-10T04:55:20;8.90;99.90
42913;DHT22;50720;54.324;18.558;2023-05-10T04:57:50;9.10;99.90
42913;DHT22;50720;54.324;18.558;2023-05-10T05:00:20;9.20;99.90
42913;DHT22;50720;54.324;18.558;2023-05-10T05:02:50;9.30;99.90
42913;DHT22;50720;54.324;18.558;2023-05-10T05:05:21;9.30;99.90
42913;DHT22;50720;54.324;18.558;2023-05-10T05:07:50;9.50;99.90
42913;DHT22;50720;54.324;18.558;2023-05-10T05:10:20;9.60;99.90
42913;DHT22;50720;54.324;18.558;2023-05-10T05:12:49;9.70;99.90
42913;DHT22;50720;54.324;18.558;2023-05-10T05:15:19;9.70;99.90
42913;DHT22;50720;54.324;18.558;2023-05-10T05:17:48;9.90;99.90
42913;DHT22;50720;54.324;18.558;2023-05-10T05:20:18;9.90;99.90
42913;DHT22;50720;54.324;18.558;2023-05-10T05:22:49;10.00;99.90
42913;DHT22;50720;54.324;18.558;2023-05-10T05:25:19;10.00;99.90
42913;DHT22;50720;54.324;18.558;2023-05-10T05:27:49;10.10;99.90
42913;DHT22;50720;54.324;18.558;2023-05-10T05:30:18;10.20;99.90
42913;DHT22;50720;54.324;18.558;2023-05-10T05:32:48;10.30;99.90
42913;DHT22;50720;54.324;18.558;2023-05-10T05:35:18;10.30;99.90
42913;DHT22;50720;54.324;18.558;2023-05-10T05:37:50;10.30;99.90
42913;DHT22;50720;54.324;18.558;2023-05-10T05:40:19;10.30;99.90
42913;DHT22;50720;54.324;18.558;2023-05-10T05:42:49;10.40;99.90
42913;DHT22;50720;54.324;18.558;2023-05-10T05:45:19;10.40;99.90
42913;DHT22;50720;54.324;18.558;2023-05-10T05:47:49;10.60;99.90
42913;DHT22;50720;54.324;18.558;2023-05-10T05:50:18;10.60;99.90
42913;DHT22;50720;54.324;18.558;2023-05-10T05:52:49;10.80;99.90
42913;DHT22;50720;54.324;18.558;2023-05-10T05:55:19;10.80;99.90
42913;DHT22;50720;54.324;18.558;2023-05-10T05:57:49;10.80;99.90
42913;DHT22;50720;54.324;18.558;2023-05-10T06:00:19;10.80;99.90
42913;DHT22;50720;54.324;18.558;2023-05-10T06:02:49;10.90;99.90
42913;DHT22;50720;54.324;18.558;2023-05-10T06:05:19;10.80;99.90
42913;DHT22;50720;54.324;18.558;2023-05-10T06:07:50;10.80;99.90
42913;DHT22;50720;54.324;18.558;2023-05-10T06:10:20;10.90;99.90
42913;DHT22;50720;54.324;18.558;2023-05-10T06:12:49;11.00;99.90
42913;DHT22;50720;54.324;18.558;2023-05-10T06:15:19;11.10;99.90
42913;DHT22;50720;54.324;18.558;2023-05-10T06:17:49;11.10;99.90
42913;DHT22;50720;54.324;18.558;2023-05-10T06:20:18;11.20;99.90
42913;DHT22;50720;54.324;18.558;2023-05-10T06:22:49;11.20;99.90
42913;DHT22;50720;54.324;18.558;2023-05-10T06:25:19;11.30;99.90
42913;DHT22;50720;54.324;18.558;2023-05-10T06:27:48;11.30;99.90
42913;DHT22;50720;54.324;18.558;2023-05-10T06:30:20;11.40;99.90
42913;DHT22;50720;54.324;18.558;2023-05-10T06:32:50;11.40;99.90
42913;DHT22;50720;54.324;18.558;2023-05-10T06:35:20;11.80;99.90
42913;DHT22;50720;54.324;18.558;2023-05-10T06:37:51;11.70;99.90
42913;DHT22;50720;54.324;18.558;2023-05-10T06:40:20;11.90;99.90
42913;DHT22;50720;54.324;18.558;2023-05-10T06:42:50;12.00;99.90
42913;DHT22;50720;54.324;18.558;2023-05-10T06:45:20;12.10;99.90
42913;DHT22;50720;54.324;18.558;2023-05-10T06:47:49;12.30;99.90
42913;DHT22;50720;54.324;18.558;2023-05-10T06:50:19;12.60;99.90
42913;DHT22;50720;54.324;18.558;2023-05-10T06:52:49;12.70;99.90
42913;DHT22;50720;54.324;18.558;2023-05-10T06:55:21;12.80;99.90
42913;DHT22;50720;54.324;18.558;2023-05-10T06:57:51;12.80;99.90
42913;DHT22;50720;54.324;18.558;2023-05-10T07:00:20;12.90;99.90
42913;DHT22;50720;54.324;18.558;2023-05-10T07:02:50;13.00;99.90
42913;DHT22;50720;54.324;18.558;2023-05-10T07:05:20;13.30;99.90
42913;DHT22;50720;54.324;18.558;2023-05-10T07:07:50;13.30;99.90
42913;DHT22;50720;54.324;18.558;2023-05-10T07:10:20;13.40;99.90
42913;DHT22;50720;54.324;18.558;2023-05-10T07:12:50;13.70;99.90
42913;DHT22;50720;54.324;18.558;2023-05-10T07:15:20;13.80;99.90
42913;DHT22;50720;54.324;18.558;2023-05-10T07:17:50;13.80;99.90
42913;DHT22;50720;54.324;18.558;2023-05-10T07:20:21;13.90;99.90
42913;DHT22;50720;54.324;18.558;2023-05-10T07:22:50;13.80;99.90
42913;DHT22;50720;54.324;18.558;2023-05-10T07:25:21;14.00;99.90
42913;DHT22;50720;54.324;18.558;2023-05-10T07:27:51;14.10;99.90
42913;DHT22;50720;54.324;18.558;2023-05-10T07:30:20;14.20;99.90
42913;DHT22;50720;54.324;18.558;2023-05-10T07:32:50;14.20;98.60
42913;DHT22;50720;54.324;18.558;2023-05-10T07:35:19;14.20;98.80
42913;DHT22;50720;54.324;18.558;2023-05-10T07:37:49;14.40;99.20
42913;DHT22;50720;54.324;18.558;2023-05-10T07:40:20;14.40;98.90
42913;DHT22;50720;54.324;18.558;2023-05-10T07:42:50;14.70;96.20
42913;DHT22;50720;54.324;18.558;2023-05-10T07:45:20;14.80;95.30
42913;DHT22;50720;54.324;18.558;2023-05-10T07:47:49;15.00;93.60
42913;DHT22;50720;54.324;18.558;2023-05-10T07:50:19;14.90;93.20
42913;DHT22;50720;54.324;18.558;2023-05-10T07:52:49;15.00;94.20
42913;DHT22;50720;54.324;18.558;2023-05-10T07:55:20;15.20;94.10
42913;DHT22;50720;54.324;18.558;2023-05-10T07:57:50;15.30;94.10
42913;DHT22;50720;54.324;18.558;2023-05-10T08:00:20;15.40;89.30
42913;DHT22;50720;54.324;18.558;2023-05-10T08:02:49;15.50;90.00
42913;DHT22;50720;54.324;18.558;2023-05-10T08:05:19;15.60;89.40
42913;DHT22;50720;54.324;18.558;2023-05-10T08:07:48;15.60;90.40
42913;DHT22;50720;54.324;18.558;2023-05-10T08:10:18;15.60;87.70
42913;DHT22;50720;54.324;18.558;2023-05-10T08:12:49;15.60;83.00
42913;DHT22;50720;54.324;18.558;2023-05-10T08:15:18;15.60;83.70
42913;DHT22;50720;54.324;18.558;2023-05-10T08:17:48;15.70;84.40
42913;DHT22;50720;54.324;18.558;2023-05-10T08:20:18;15.80;83.10
42913;DHT22;50720;54.324;18.558;2023-05-10T08:22:48;15.90;76.70
42913;DHT22;50720;54.324;18.558;2023-05-10T08:25:18;15.90;73.20
42913;DHT22;50720;54.324;18.558;2023-05-10T08:27:49;15.90;74.00
42913;DHT22;50720;54.324;18.558;2023-05-10T08:30:18;15.70;72.00
42913;DHT22;50720;54.324;18.558;2023-05-10T08:32:49;15.60;71.10
42913;DHT22;50720;54.324;18.558;2023-05-10T08:35:18;15.60;72.10
42913;DHT22;50720;54.324;18.558;2023-05-10T08:37:47;15.60;71.50
42913;DHT22;50720;54.324;18.558;2023-05-10T08:40:19;15.60;71.10
42913;DHT22;50720;54.324;18.558;2023-05-10T08:42:54;15.50;71.90
42913;DHT22;50720;54.324;18.558;2023-05-10T08:45:24;15.50;71.50
42913;DHT22;50720;54.324;18.558;2023-05-10T08:47:57;15.70;70.60
42913;DHT22;50720;54.324;18.558;2023-05-10T08:50:29;15.70;69.90
42913;DHT22;50720;54.324;18.558;2023-05-10T08:53:06;15.80;70.20
42913;DHT22;50720;54.324;18.558;2023-05-10T08:55:38;15.80;69.90
42913;DHT22;50720;54.324;18.558;2023-05-10T08:58:11;15.90;69.80
42913;DHT22;50720;54.324;18.558;2023-05-10T09:00:40;15.90;68.50
42913;DHT22;50720;54.324;18.558;2023-05-10T09:03:11;16.00;69.10
42913;DHT22;50720;54.324;18.558;2023-05-10T09:05:41;16.20;68.40
42913;DHT22;50720;54.324;18.558;2023-05-10T09:08:13;16.20;67.00
42913;DHT22;50720;54.324;18.558;2023-05-10T09:10:44;16.10;66.30
42913;DHT22;50720;54.324;18.558;2023-05-10T09:13:17;16.40;66.50
42913;DHT22;50720;54.324;18.558;2023-05-10T09:15:47;16.10;64.90
42913;DHT22;50720;54.324;18.558;2023-05-10T09:18:17;16.00;65.50
42913;DHT22;50720;54.324;18.558;2023-05-10T09:20:47;16.10;67.10
42913;DHT22;50720;54.324;18.558;2023-05-10T09:23:17;16.30;66.40
42913;DHT22;50720;54.324;18.558;2023-05-10T09:25:46;16.40;66.80
42913;DHT22;50720;54.324;18.558;2023-05-10T09:28:17;16.30;64.40
42913;DHT22;50720;54.324;18.558;2023-05-10T09:30:46;16.30;65.00
42913;DHT22;50720;54.324;18.558;2023-05-10T09:33:24;16.30;63.20
42913;DHT22;50720;54.324;18.558;2023-05-10T09:35:54;16.30;63.30
42913;DHT22;50720;54.324;18.558;2023-05-10T09:38:23;16.30;63.70
42913;DHT22;50720;54.324;18.558;2023-05-10T09:40:53;16.40;63.40
42913;DHT22;50720;54.324;18.558;2023-05-10T09:43:26;16.40;62.30
42913;DHT22;50720;54.324;18.558;2023-05-10T09:45:55;16.50;63.60
42913;DHT22;50720;54.324;18.558;2023-05-10T09:48:25;16.60;63.20
42913;DHT22;50720;54.324;18.558;2023-05-10T09:50:57;16.70;64.10
42913;DHT22;50720;54.324;18.558;2023-05-10T09:53:26;16.60;63.60
42913;DHT22;50720;54.324;18.558;2023-05-10T09:55:56;16.70;63.60
42913;DHT22;50720;54.324;18.558;2023-05-10T09:58:27;16.70;62.60
42913;DHT22;50720;54.324;18.558;2023-05-10T10:00:55;16.80;62.60
42913;DHT22;50720;54.324;18.558;2023-05-10T10:03:25;17.00;63.00
42913;DHT22;50720;54.324;18.558;2023-05-10T10:05:57;17.10;59.90
42913;DHT22;50720;54.324;18.558;2023-05-10T10:08:27;17.10;59.60
42913;DHT22;50720;54.324;18.558;2023-05-10T10:10:56;17.20;61.80
42913;DHT22;50720;54.324;18.558;2023-05-10T10:13:27;17.40;61.10
42913;DHT22;50720;54.324;18.558;2023-05-10T10:15:57;17.50;61.80
42913;DHT22;50720;54.324;18.558;2023-05-10T10:18:27;17.50;60.00
42913;DHT22;50720;54.324;18.558;2023-05-10T10:20:57;17.40;60.50
42913;DHT22;50720;54.324;18.558;2023-05-10T10:23:27;17.50;61.30
42913;DHT22;50720;54.324;18.558;2023-05-10T10:25:57;17.60;59.90
42913;DHT22;50720;54.324;18.558;2023-05-10T10:28:38;17.70;59.80
42913;DHT22;50720;54.324;18.558;2023-05-10T10:31:21;17.60;58.90
42913;DHT22;50720;54.324;18.558;2023-05-10T10:34:00;17.70;58.80
42913;DHT22;50720;54.324;18.558;2023-05-10T10:36:30;17.70;57.50
42913;DHT22;50720;54.324;18.558;2023-05-10T10:39:07;18.00;58.10
42913;DHT22;50720;54.324;18.558;2023-05-10T10:41:39;18.10;57.00
42913;DHT22;50720;54.324;18.558;2023-05-10T10:44:34;18.50;57.30
42913;DHT22;50720;54.324;18.558;2023-05-10T10:47:21;18.50;54.90
42913;DHT22;50720;54.324;18.558;2023-05-10T10:50:02;18.60;54.40
42913;DHT22;50720;54.324;18.558;2023-05-10T10:52:33;19.30;54.80
42913;DHT22;50720;54.324;18.558;2023-05-10T10:55:05;20.00;52.90
42913;DHT22;50720;54.324;18.558;2023-05-10T10:57:49;20.20;52.00
42913;DHT22;50720;54.324;18.558;2023-05-10T11:00:33;20.20;50.70
42913;DHT22;50720;54.324;18.558;2023-05-10T11:03:05;20.20;51.30
42913;DHT22;50720;54.324;18.558;2023-05-10T11:05:40;20.00;50.70
42913;DHT22;50720;54.324;18.558;2023-05-10T11:08:15;20.40;50.10
42913;DHT22;50720;54.324;18.558;2023-05-10T11:11:06;20.70;49.60
42913;DHT22;50720;54.324;18.558;2023-05-10T11:13:39;21.10;48.60
42913;DHT22;50720;54.324;18.558;2023-05-10T11:16:13;20.50;49.00
42913;DHT22;50720;54.324;18.558;2023-05-10T11:19:01;20.60;49.40
42913;DHT22;50720;54.324;18.558;2023-05-10T11:21:33;20.60;49.00
42913;DHT22;50720;54.324;18.558;2023-05-10T11:24:08;21.00;48.60
42913;DHT22;50720;54.324;18.558;2023-05-10T11:26:42;21.80;48.40
42913;DHT22;50720;54.324;18.558;2023-05-10T11:29:13;21.20;48.30
42913;DHT22;50720;54.324;18.558;2023-05-10T11:31:44;21.00;48.50
42913;DHT22;50720;54.324;18.558;2023-05-10T11:34:24;20.80;48.10
42913;DHT22;50720;54.324;18.558;2023-05-10T11:36:55;20.90;47.30
42913;DHT22;50720;54.324;18.558;2023-05-10T11:39:25;20.90;46.40
42913;DHT22;50720;54.324;18.558;2023-05-10T11:41:55;21.30;45.40
42913;DHT22;50720;54.324;18.558;2023-05-10T11:44:29;21.60;45.50
42913;DHT22;50720;54.324;18.558;2023-05-10T11:47:01;21.80;46.30
42913;DHT22;50720;54.324;18.558;2023-05-10T11:49:31;22.10;45.60
42913;DHT22;50720;54.324;18.558;2023-05-10T11:52:04;22.30;46.20
42913;DHT22;50720;54.324;18.558;2023-05-10T11:54:34;22.40;46.20
42913;DHT22;50720;54.324;18.558;2023-05-10T11:57:04;22.30;46.60
42913;DHT22;50720;54.324;18.558;2023-05-10T11:59:34;22.10;46.00
42913;DHT22;50720;54.324;18.558;2023-05-10T12:02:05;22.30;46.00
42913;DHT22;50720;54.324;18.558;2023-05-10T12:04:34;22.40;47.20
42913;DHT22;50720;54.324;18.558;2023-05-10T12:07:05;22.20;45.40
42913;DHT22;50720;54.324;18.558;2023-05-10T12:09:34;21.90;46.40
42913;DHT22;50720;54.324;18.558;2023-05-10T12:12:15;22.10;46.30
42913;DHT22;50720;54.324;18.558;2023-05-10T12:14:49;22.10;45.20
42913;DHT22;50720;54.324;18.558;2023-05-10T12:17:21;22.10;45.30
42913;DHT22;50720;54.324;18.558;2023-05-10T12:19:50;22.10;44.60
42913;DHT22;50720;54.324;18.558;2023-05-10T12:22:21;22.20;44.30
42913;DHT22;50720;54.324;18.558;2023-05-10T12:24:50;22.60;44.20
42913;DHT22;50720;54.324;18.558;2023-05-10T12:27:20;22.70;44.40
42913;DHT22;50720;54.324;18.558;2023-05-10T12:29:50;22.70;43.40
42913;DHT22;50720;54.324;18.558;2023-05-10T12:32:21;22.30;42.80
42913;DHT22;50720;54.324;18.558;2023-05-10T12:34:52;22.10;43.10
42913;DHT22;50720;54.324;18.558;2023-05-10T12:37:26;22.40;44.00
42913;DHT22;50720;54.324;18.558;2023-05-10T12:39:57;22.40;43.20
42913;DHT22;50720;54.324;18.558;2023-05-10T12:42:26;22.60;44.20
42913;DHT22;50720;54.324;18.558;2023-05-10T12:44:56;22.00;42.30
42913;DHT22;50720;54.324;18.558;2023-05-10T12:47:27;22.20;43.20
42913;DHT22;50720;54.324;18.558;2023-05-10T12:49:57;22.30;43.40
42913;DHT22;50720;54.324;18.558;2023-05-10T12:52:26;22.30;43.30
42913;DHT22;50720;54.324;18.558;2023-05-10T12:54:56;22.60;43.20
42913;DHT22;50720;54.324;18.558;2023-05-10T12:57:26;22.70;44.00
42913;DHT22;50720;54.324;18.558;2023-05-10T12:59:55;22.90;43.70
42913;DHT22;50720;54.324;18.558;2023-05-10T13:02:27;23.00;42.80
42913;DHT22;50720;54.324;18.558;2023-05-10T13:04:56;22.70;42.40
42913;DHT22;50720;54.324;18.558;2023-05-10T13:07:26;23.00;43.20
42913;DHT22;50720;54.324;18.558;2023-05-10T13:09:55;22.90;42.10
42913;DHT22;50720;54.324;18.558;2023-05-10T13:12:25;23.10;42.90
42913;DHT22;50720;54.324;18.558;2023-05-10T13:14:55;23.70;42.20
42913;DHT22;50720;54.324;18.558;2023-05-10T13:17:27;23.50;41.00
42913;DHT22;50720;54.324;18.558;2023-05-10T13:19:58;23.40;41.70
42913;DHT22;50720;54.324;18.558;2023-05-10T13:22:28;23.40;42.10
42913;DHT22;50720;54.324;18.558;2023-05-10T13:25:07;23.80;41.40
42913;DHT22;50720;54.324;18.558;2023-05-10T13:27:37;23.40;41.90
42913;DHT22;50720;54.324;18.558;2023-05-10T13:30:08;23.80;41.50
42913;DHT22;50720;54.324;18.558;2023-05-10T13:32:40;24.00;41.10
42913;DHT22;50720;54.324;18.558;2023-05-10T13:35:10;24.00;41.50
42913;DHT22;50720;54.324;18.558;2023-05-10T13:37:39;23.70;41.50
42913;DHT22;50720;54.324;18.558;2023-05-10T13:40:09;23.20;41.60
42913;DHT22;50720;54.324;18.558;2023-05-10T13:42:39;23.30;42.60
42913;DHT22;50720;54.324;18.558;2023-05-10T13:45:09;23.50;42.60
42913;DHT22;50720;54.324;18.558;2023-05-10T13:47:41;23.70;42.60
42913;DHT22;50720;54.324;18.558;2023-05-10T13:50:11;24.20;42.00
42913;DHT22;50720;54.324;18.558;2023-05-10T13:52:41;24.50;42.10
42913;DHT22;50720;54.324;18.558;2023-05-10T13:55:10;23.80;41.70
42913;DHT22;50720;54.324;18.558;2023-05-10T13:58:30;23.50;41.50
42913;DHT22;50720;54.324;18.558;2023-05-10T14:00:59;23.40;41.80
42913;DHT22;50720;54.324;18.558;2023-05-10T14:03:30;22.90;42.10
42913;DHT22;50720;54.324;18.558;2023-05-10T14:06:01;23.50;42.40
42913;DHT22;50720;54.324;18.558;2023-05-10T14:08:30;23.60;42.50
42913;DHT22;50720;54.324;18.558;2023-05-10T14:11:01;23.50;42.10
42913;DHT22;50720;54.324;18.558;2023-05-10T14:13:30;23.50;41.90
42913;DHT22;50720;54.324;18.558;2023-05-10T14:16:00;23.40;41.90
42913;DHT22;50720;54.324;18.558;2023-05-10T14:18:30;23.40;41.90
42913;DHT22;50720;54.324;18.558;2023-05-10T14:21:02;23.80;41.10
42913;DHT22;50720;54.324;18.558;2023-05-10T14:23:32;23.20;41.10
42913;DHT22;50720;54.324;18.558;2023-05-10T14:26:02;23.00;41.40
42913;DHT22;50720;54.324;18.558;2023-05-10T14:28:31;23.00;42.00
42913;DHT22;50720;54.324;18.558;2023-05-10T14:31:01;22.50;41.80
42913;DHT22;50720;54.324;18.558;2023-05-10T14:33:32;22.90;41.60
42913;DHT22;50720;54.324;18.558;2023-05-10T14:36:03;23.00;40.80
42913;DHT22;50720;54.324;18.558;2023-05-10T14:38:32;22.90;41.30
42913;DHT22;50720;54.324;18.558;2023-05-10T14:41:02;22.90;41.10
42913;DHT22;50720;54.324;18.558;2023-05-10T14:43:31;23.00;41.30
42913;DHT22;50720;54.324;18.558;2023-05-10T14:46:01;22.80;41.40
42913;DHT22;50720;54.324;18.558;2023-05-10T14:48:32;22.30;41.70
42913;DHT22;50720;54.324;18.558;2023-05-10T14:51:02;22.80;42.00
42913;DHT22;50720;54.324;18.558;2023-05-10T14:53:46;22.60;41.70
42913;DHT22;50720;54.324;18.558;2023-05-10T14:56:16;22.30;41.50
42913;DHT22;50720;54.324;18.558;2023-05-10T14:58:46;22.50;41.50
42913;DHT22;50720;54.324;18.558;2023-05-10T15:01:16;23.10;41.60
42913;DHT22;50720;54.324;18.558;2023-05-10T15:03:49;23.10;41.80
42913;DHT22;50720;54.324;18.558;2023-05-10T15:06:23;23.20;41.50
42913;DHT22;50720;54.324;18.558;2023-05-10T15:08:53;23.00;41.40
42913;DHT22;50720;54.324;18.558;2023-05-10T15:11:23;23.20;41.50
42913;DHT22;50720;54.324;18.558;2023-05-10T15:13:53;23.20;41.60
42913;DHT22;50720;54.324;18.558;2023-05-10T15:16:23;23.10;41.60
42913;DHT22;50720;54.324;18.558;2023-05-10T15:18:54;23.20;41.70
42913;DHT22;50720;54.324;18.558;2023-05-10T15:21:24;23.00;41.50
42913;DHT22;50720;54.324;18.558;2023-05-10T15:23:53;22.90;41.40
42913;DHT22;50720;54.324;18.558;2023-05-10T15:26:23;22.60;41.50
42913;DHT22;50720;54.324;18.558;2023-05-10T15:28:53;22.80;42.20
42913;DHT22;50720;54.324;18.558;2023-05-10T15:31:23;23.00;41.80
42913;DHT22;50720;54.324;18.558;2023-05-10T15:33:57;22.90;42.30
42913;DHT22;50720;54.324;18.558;2023-05-10T15:36:27;22.90;42.30
42913;DHT22;50720;54.324;18.558;2023-05-10T15:38:56;22.70;41.80
42913;DHT22;50720;54.324;18.558;2023-05-10T15:41:26;22.50;42.20
42913;DHT22;50720;54.324;18.558;2023-05-10T15:43:55;22.20;42.50
42913;DHT22;50720;54.324;18.558;2023-05-10T15:46:25;22.10;42.70
42913;DHT22;50720;54.324;18.558;2023-05-10T15:48:57;22.30;42.40